Altitude, Mississippi
Current Conditions -  °F | °C
As of 4:15 PM on Friday 31 Oct 2014 (Local Time) from KCRX Reporting Station
Overcast Overcast  
Wind Chill: 55°   Ceiling: 6000
Heat Index: 55°   Visibility: 7mi
Dew Point: 39°   Wind: 18mph
Humidity: 54%   Direction: 330°NNW
Pressure: 30.09"   Gusts: 29mph
Location:  34.6741°N, 88.5234°W
Report Text: KCRX 312115Z AUTO 33016G25KT 7SM OVC060 13/04 A3009 RMK AO2
Loading
Personal Weather Stations






























Interactive Weather Map
Tropical Storm Tracking
New forecast layout! Learn more

10-Day Weather Forecast

Advertisements
Track Severe Weather on mobile